sensor_id;sensor_type;location;lat;lon;timestamp;temperature;humidity
2663;DHT22;49701;48.072;7.800;2024-02-28T00:01:15;9.00;99.90
2663;DHT22;49701;48.072;7.800;2024-02-28T00:03:41;9.00;99.90
2663;DHT22;49701;48.072;7.800;2024-02-28T00:06:06;9.10;99.90
2663;DHT22;49701;48.072;7.800;2024-02-28T00:08:32;9.00;99.90
2663;DHT22;49701;48.072;7.800;2024-02-28T00:10:57;9.00;99.90
2663;DHT22;49701;48.072;7.800;2024-02-28T00:13:23;9.00;99.90
2663;DHT22;49701;48.072;7.800;2024-02-28T00:15:50;9.00;99.90
2663;DHT22;49701;48.072;7.800;2024-02-28T00:18:15;9.00;99.90
2663;DHT22;49701;48.072;7.800;2024-02-28T00:20:41;9.00;99.90
2663;DHT22;49701;48.072;7.800;2024-02-28T00:23:09;9.00;99.90
2663;DHT22;49701;48.072;7.800;2024-02-28T00:25:34;9.00;99.90
2663;DHT22;49701;48.072;7.800;2024-02-28T00:28:00;9.00;99.90
2663;DHT22;49701;48.072;7.800;2024-02-28T00:30:26;9.00;99.90
2663;DHT22;49701;48.072;7.800;2024-02-28T00:32:54;8.90;99.90
2663;DHT22;49701;48.072;7.800;2024-02-28T00:35:19;8.90;99.90
2663;DHT22;49701;48.072;7.800;2024-02-28T00:37:45;8.90;99.90
2663;DHT22;49701;48.072;7.800;2024-02-28T00:40:10;8.90;99.90
2663;DHT22;49701;48.072;7.800;2024-02-28T00:42:36;8.90;99.90
2663;DHT22;49701;48.072;7.800;2024-02-28T00:45:02;8.80;99.90
2663;DHT22;49701;48.072;7.800;2024-02-28T00:47:28;8.70;99.90
2663;DHT22;49701;48.072;7.800;2024-02-28T00:49:53;8.60;99.90
2663;DHT22;49701;48.072;7.800;2024-02-28T00:52:19;8.60;99.90
2663;DHT22;49701;48.072;7.800;2024-02-28T00:54:44;8.50;99.90
2663;DHT22;49701;48.072;7.800;2024-02-28T00:57:10;8.50;99.90
2663;DHT22;49701;48.072;7.800;2024-02-28T00:59:35;8.40;99.90
2663;DHT22;49701;48.072;7.800;2024-02-28T01:02:01;8.40;99.90
2663;DHT22;49701;48.072;7.800;2024-02-28T01:04:28;8.30;99.90
2663;DHT22;49701;48.072;7.800;2024-02-28T01:06:54;8.30;99.90
2663;DHT22;49701;48.072;7.800;2024-02-28T01:09:20;8.20;99.90
2663;DHT22;49701;48.072;7.800;2024-02-28T01:11:45;8.20;99.90
2663;DHT22;49701;48.072;7.800;2024-02-28T01:14:11;8.20;99.90
2663;DHT22;49701;48.072;7.800;2024-02-28T01:16:36;8.20;99.90
2663;DHT22;49701;48.072;7.800;2024-02-28T01:19:03;8.10;99.90
2663;DHT22;49701;48.072;7.800;2024-02-28T01:21:28;8.10;99.90
2663;DHT22;49701;48.072;7.800;2024-02-28T01:23:54;8.10;99.90
2663;DHT22;49701;48.072;7.800;2024-02-28T01:26:19;8.00;99.90
2663;DHT22;49701;48.072;7.800;2024-02-28T01:28:47;7.90;99.90
2663;DHT22;49701;48.072;7.800;2024-02-28T01:31:13;7.90;99.90
2663;DHT22;49701;48.072;7.800;2024-02-28T01:33:38;7.80;99.90
2663;DHT22;49701;48.072;7.800;2024-02-28T01:36:06;7.80;99.90
2663;DHT22;49701;48.072;7.800;2024-02-28T01:38:31;7.70;99.90
2663;DHT22;49701;48.072;7.800;2024-02-28T01:40:57;7.70;99.90
2663;DHT22;49701;48.072;7.800;2024-02-28T01:43:23;7.70;99.90
2663;DHT22;49701;48.072;7.800;2024-02-28T01:45:49;7.70;99.90
2663;DHT22;49701;48.072;7.800;2024-02-28T01:48:14;7.80;99.90
2663;DHT22;49701;48.072;7.800;2024-02-28T01:50:41;7.80;99.90
2663;DHT22;49701;48.072;7.800;2024-02-28T01:53:07;7.80;99.90
2663;DHT22;49701;48.072;7.800;2024-02-28T01:55:34;7.80;99.90
2663;DHT22;49701;48.072;7.800;2024-02-28T01:58:00;7.80;99.90
2663;DHT22;49701;48.072;7.800;2024-02-28T02:00:26;7.80;99.90
2663;DHT22;49701;48.072;7.800;2024-02-28T02:02:53;7.80;99.90
2663;DHT22;49701;48.072;7.800;2024-02-28T02:05:18;7.80;99.90
2663;DHT22;49701;48.072;7.800;2024-02-28T02:07:47;7.80;99.90
2663;DHT22;49701;48.072;7.800;2024-02-28T02:10:13;7.80;99.90
2663;DHT22;49701;48.072;7.800;2024-02-28T02:12:39;7.80;99.90
2663;DHT22;49701;48.072;7.800;2024-02-28T02:15:04;7.80;99.90
2663;DHT22;49701;48.072;7.800;2024-02-28T02:17:30;7.70;99.90
2663;DHT22;49701;48.072;7.800;2024-02-28T02:19:56;7.70;99.90
2663;DHT22;49701;48.072;7.800;2024-02-28T02:22:21;7.70;99.90
2663;DHT22;49701;48.072;7.800;2024-02-28T02:24:48;7.70;99.90
2663;DHT22;49701;48.072;7.800;2024-02-28T02:27:13;7.70;99.90
2663;DHT22;49701;48.072;7.800;2024-02-28T02:29:39;7.70;99.90
2663;DHT22;49701;48.072;7.800;2024-02-28T02:32:05;7.70;99.90
2663;DHT22;49701;48.072;7.800;2024-02-28T02:34:31;7.70;99.90
2663;DHT22;49701;48.072;7.800;2024-02-28T02:36:56;7.70;99.90
2663;DHT22;49701;48.072;7.800;2024-02-28T02:39:22;7.70;99.90
2663;DHT22;49701;48.072;7.800;2024-02-28T02:41:47;7.70;99.90
2663;DHT22;49701;48.072;7.800;2024-02-28T02:44:13;7.70;99.90
2663;DHT22;49701;48.072;7.800;2024-02-28T02:46:38;7.70;99.90
2663;DHT22;49701;48.072;7.800;2024-02-28T02:49:04;7.70;99.90
2663;DHT22;49701;48.072;7.800;2024-02-28T02:51:30;7.70;99.90
2663;DHT22;49701;48.072;7.800;2024-02-28T02:53:55;7.70;99.90
2663;DHT22;49701;48.072;7.800;2024-02-28T02:56:21;7.70;99.90
2663;DHT22;49701;48.072;7.800;2024-02-28T02:58:46;7.70;99.90
2663;DHT22;49701;48.072;7.800;2024-02-28T03:01:12;7.70;99.90
2663;DHT22;49701;48.072;7.800;2024-02-28T03:03:37;7.70;99.90
2663;DHT22;49701;48.072;7.800;2024-02-28T03:06:04;7.60;99.90
2663;DHT22;49701;48.072;7.800;2024-02-28T03:08:30;7.70;99.90
2663;DHT22;49701;48.072;7.800;2024-02-28T03:10:56;7.60;99.90
2663;DHT22;49701;48.072;7.800;2024-02-28T03:13:21;7.60;99.90
2663;DHT22;49701;48.072;7.800;2024-02-28T03:15:48;7.60;99.90
2663;DHT22;49701;48.072;7.800;2024-02-28T03:18:13;7.50;99.90
2663;DHT22;49701;48.072;7.800;2024-02-28T03:20:39;7.60;99.90
2663;DHT22;49701;48.072;7.800;2024-02-28T03:23:05;7.50;99.90
2663;DHT22;49701;48.072;7.800;2024-02-28T03:25:33;7.50;99.90
2663;DHT22;49701;48.072;7.800;2024-02-28T03:27:59;7.60;99.90
2663;DHT22;49701;48.072;7.800;2024-02-28T03:30:26;7.50;99.90
2663;DHT22;49701;48.072;7.800;2024-02-28T03:32:52;7.50;99.90
2663;DHT22;49701;48.072;7.800;2024-02-28T03:35:17;7.50;99.90
2663;DHT22;49701;48.072;7.800;2024-02-28T03:37:43;7.50;99.90
2663;DHT22;49701;48.072;7.800;2024-02-28T03:40:09;7.50;99.90
2663;DHT22;49701;48.072;7.800;2024-02-28T03:42:34;7.50;99.90
2663;DHT22;49701;48.072;7.800;2024-02-28T03:45:00;7.50;99.90
2663;DHT22;49701;48.072;7.800;2024-02-28T03:47:25;7.50;99.90
2663;DHT22;49701;48.072;7.800;2024-02-28T03:49:52;7.50;99.90
2663;DHT22;49701;48.072;7.800;2024-02-28T03:52:17;7.50;99.90
2663;DHT22;49701;48.072;7.800;2024-02-28T03:54:43;7.50;99.90
2663;DHT22;49701;48.072;7.800;2024-02-28T03:57:09;7.50;99.90
2663;DHT22;49701;48.072;7.800;2024-02-28T03:59:34;7.50;99.90
2663;DHT22;49701;48.072;7.800;2024-02-28T04:02:00;7.50;99.90
2663;DHT22;49701;48.072;7.800;2024-02-28T04:04:25;7.50;99.90
2663;DHT22;49701;48.072;7.800;2024-02-28T04:06:51;7.50;99.90
2663;DHT22;49701;48.072;7.800;2024-02-28T04:09:17;7.50;99.90
2663;DHT22;49701;48.072;7.800;2024-02-28T04:11:42;7.50;99.90
2663;DHT22;49701;48.072;7.800;2024-02-28T04:14:08;7.40;99.90
2663;DHT22;49701;48.072;7.800;2024-02-28T04:16:34;7.40;99.90
2663;DHT22;49701;48.072;7.800;2024-02-28T04:18:59;7.30;99.90
2663;DHT22;49701;48.072;7.800;2024-02-28T04:21:25;7.40;99.90
2663;DHT22;49701;48.072;7.800;2024-02-28T04:23:50;7.30;99.90
2663;DHT22;49701;48.072;7.800;2024-02-28T04:26:16;7.30;99.90
2663;DHT22;49701;48.072;7.800;2024-02-28T04:28:42;7.30;99.90
2663;DHT22;49701;48.072;7.800;2024-02-28T04:31:07;7.30;99.90
2663;DHT22;49701;48.072;7.800;2024-02-28T04:33:35;7.30;99.90
2663;DHT22;49701;48.072;7.800;2024-02-28T04:36:01;7.30;99.90
2663;DHT22;49701;48.072;7.800;2024-02-28T04:38:27;7.30;99.90
2663;DHT22;49701;48.072;7.800;2024-02-28T04:40:52;7.30;99.90
2663;DHT22;49701;48.072;7.800;2024-02-28T04:43:18;7.30;99.90
2663;DHT22;49701;48.072;7.800;2024-02-28T04:45:43;7.30;99.90
2663;DHT22;49701;48.072;7.800;2024-02-28T04:48:09;7.30;99.90
2663;DHT22;49701;48.072;7.800;2024-02-28T04:50:35;7.30;99.90
2663;DHT22;49701;48.072;7.800;2024-02-28T04:53:00;7.20;99.90
2663;DHT22;49701;48.072;7.800;2024-02-28T04:55:27;7.20;99.90
2663;DHT22;49701;48.072;7.800;2024-02-28T04:57:52;7.20;99.90
2663;DHT22;49701;48.072;7.800;2024-02-28T05:00:18;7.20;99.90
2663;DHT22;49701;48.072;7.800;2024-02-28T05:02:43;7.10;99.90
2663;DHT22;49701;48.072;7.800;2024-02-28T05:05:09;7.10;99.90
2663;DHT22;49701;48.072;7.800;2024-02-28T05:07:34;7.10;99.90
2663;DHT22;49701;48.072;7.800;2024-02-28T05:10:00;7.00;99.90
2663;DHT22;49701;48.072;7.800;2024-02-28T05:12:26;7.00;99.90
2663;DHT22;49701;48.072;7.800;2024-02-28T05:14:51;7.00;99.90
2663;DHT22;49701;48.072;7.800;2024-02-28T05:17:17;7.00;99.90
2663;DHT22;49701;48.072;7.800;2024-02-28T05:19:42;7.00;99.90
2663;DHT22;49701;48.072;7.800;2024-02-28T05:22:08;7.00;99.90
2663;DHT22;49701;48.072;7.800;2024-02-28T05:24:34;6.90;99.90
2663;DHT22;49701;48.072;7.800;2024-02-28T05:27:00;6.90;99.90
2663;DHT22;49701;48.072;7.800;2024-02-28T05:29:26;6.90;99.90
2663;DHT22;49701;48.072;7.800;2024-02-28T05:31:51;6.80;99.90
2663;DHT22;49701;48.072;7.800;2024-02-28T05:34:17;6.80;99.90
2663;DHT22;49701;48.072;7.800;2024-02-28T05:36:42;6.80;99.90
2663;DHT22;49701;48.072;7.800;2024-02-28T05:39:08;6.80;99.90
2663;DHT22;49701;48.072;7.800;2024-02-28T05:41:33;6.80;99.90
2663;DHT22;49701;48.072;7.800;2024-02-28T05:43:59;6.70;99.90
2663;DHT22;49701;48.072;7.800;2024-02-28T05:46:25;6.70;99.90
2663;DHT22;49701;48.072;7.800;2024-02-28T05:48:50;6.70;99.90
2663;DHT22;49701;48.072;7.800;2024-02-28T05:51:16;6.60;99.90
2663;DHT22;49701;48.072;7.800;2024-02-28T05:53:41;6.50;99.90
2663;DHT22;49701;48.072;7.800;2024-02-28T05:56:08;6.50;99.90
2663;DHT22;49701;48.072;7.800;2024-02-28T05:58:42;6.40;99.90
2663;DHT22;49701;48.072;7.800;2024-02-28T06:01:08;6.40;99.90
2663;DHT22;49701;48.072;7.800;2024-02-28T06:03:34;6.40;99.90
2663;DHT22;49701;48.072;7.800;2024-02-28T06:06:00;6.30;99.90
2663;DHT22;49701;48.072;7.800;2024-02-28T06:08:25;6.30;99.90
2663;DHT22;49701;48.072;7.800;2024-02-28T06:10:51;6.30;99.90
2663;DHT22;49701;48.072;7.800;2024-02-28T06:13:18;6.20;99.90
2663;DHT22;49701;48.072;7.800;2024-02-28T06:15:43;6.20;99.90
2663;DHT22;49701;48.072;7.800;2024-02-28T06:18:09;6.20;99.90
2663;DHT22;49701;48.072;7.800;2024-02-28T06:20:34;6.20;99.90
2663;DHT22;49701;48.072;7.800;2024-02-28T06:23:00;6.10;99.90
2663;DHT22;49701;48.072;7.800;2024-02-28T06:25:25;6.00;99.90
2663;DHT22;49701;48.072;7.800;2024-02-28T06:27:53;5.90;99.90
2663;DHT22;49701;48.072;7.800;2024-02-28T06:30:19;5.90;99.90
2663;DHT22;49701;48.072;7.800;2024-02-28T06:32:44;5.90;99.90
2663;DHT22;49701;48.072;7.800;2024-02-28T06:35:10;5.80;99.90
2663;DHT22;49701;48.072;7.800;2024-02-28T06:37:35;5.80;99.90
2663;DHT22;49701;48.072;7.800;2024-02-28T06:40:02;5.70;99.90
2663;DHT22;49701;48.072;7.800;2024-02-28T06:42:29;5.70;99.90
2663;DHT22;49701;48.072;7.800;2024-02-28T06:44:55;5.60;99.90
2663;DHT22;49701;48.072;7.800;2024-02-28T06:47:20;5.60;99.90
2663;DHT22;49701;48.072;7.800;2024-02-28T06:49:46;5.50;99.90
2663;DHT22;49701;48.072;7.800;2024-02-28T06:52:11;5.50;99.90
2663;DHT22;49701;48.072;7.800;2024-02-28T06:54:37;5.50;99.90
2663;DHT22;49701;48.072;7.800;2024-02-28T06:57:02;5.50;99.90
2663;DHT22;49701;48.072;7.800;2024-02-28T06:59:28;5.50;99.90
2663;DHT22;49701;48.072;7.800;2024-02-28T07:01:54;5.50;99.90
2663;DHT22;49701;48.072;7.800;2024-02-28T07:04:19;5.50;99.90
2663;DHT22;49701;48.072;7.800;2024-02-28T07:06:45;5.50;99.90
2663;DHT22;49701;48.072;7.800;2024-02-28T07:09:11;5.50;99.90
2663;DHT22;49701;48.072;7.800;2024-02-28T07:11:37;5.50;99.90
2663;DHT22;49701;48.072;7.800;2024-02-28T07:14:04;5.50;99.90
2663;DHT22;49701;48.072;7.800;2024-02-28T07:16:29;5.50;99.90
2663;DHT22;49701;48.072;7.800;2024-02-28T07:18:55;5.50;99.90
2663;DHT22;49701;48.072;7.800;2024-02-28T07:21:21;5.50;99.90
2663;DHT22;49701;48.072;7.800;2024-02-28T07:23:46;5.50;99.90
2663;DHT22;49701;48.072;7.800;2024-02-28T07:26:15;5.50;99.90
2663;DHT22;49701;48.072;7.800;2024-02-28T07:28:41;5.50;99.90
2663;DHT22;49701;48.072;7.800;2024-02-28T07:31:06;5.60;99.90
2663;DHT22;49701;48.072;7.800;2024-02-28T07:33:32;5.60;99.90
2663;DHT22;49701;48.072;7.800;2024-02-28T07:35:57;5.70;99.90
2663;DHT22;49701;48.072;7.800;2024-02-28T07:38:26;5.80;99.90
2663;DHT22;49701;48.072;7.800;2024-02-28T07:40:53;5.90;99.90
2663;DHT22;49701;48.072;7.800;2024-02-28T07:43:18;6.00;99.90
2663;DHT22;49701;48.072;7.800;2024-02-28T07:45:44;6.10;99.90
2663;DHT22;49701;48.072;7.800;2024-02-28T07:48:10;6.20;99.90
2663;DHT22;49701;48.072;7.800;2024-02-28T07:50:35;6.30;99.90
2663;DHT22;49701;48.072;7.800;2024-02-28T07:53:01;6.40;99.90
2663;DHT22;49701;48.072;7.800;2024-02-28T07:55:26;6.50;99.90
2663;DHT22;49701;48.072;7.800;2024-02-28T07:57:52;6.60;99.90
2663;DHT22;49701;48.072;7.800;2024-02-28T08:00:18;6.70;99.90
2663;DHT22;49701;48.072;7.800;2024-02-28T08:02:45;6.80;99.90
2663;DHT22;49701;48.072;7.800;2024-02-28T08:05:11;6.90;99.90
2663;DHT22;49701;48.072;7.800;2024-02-28T08:07:36;7.10;99.90
2663;DHT22;49701;48.072;7.800;2024-02-28T08:10:02;7.20;99.90
2663;DHT22;49701;48.072;7.800;2024-02-28T08:12:30;7.30;99.90
2663;DHT22;49701;48.072;7.800;2024-02-28T08:14:56;7.40;99.90
2663;DHT22;49701;48.072;7.800;2024-02-28T08:17:21;7.40;99.90
2663;DHT22;49701;48.072;7.800;2024-02-28T08:19:47;7.50;99.90
2663;DHT22;49701;48.072;7.800;2024-02-28T08:22:12;7.50;99.90
2663;DHT22;49701;48.072;7.800;2024-02-28T08:24:38;7.60;99.90
2663;DHT22;49701;48.072;7.800;2024-02-28T08:27:04;7.80;99.90
2663;DHT22;49701;48.072;7.800;2024-02-28T08:29:29;8.00;99.90
2663;DHT22;49701;48.072;7.800;2024-02-28T08:31:55;8.50;99.90
2663;DHT22;49701;48.072;7.800;2024-02-28T08:34:20;8.90;99.90
2663;DHT22;49701;48.072;7.800;2024-02-28T08:36:46;9.30;99.90
2663;DHT22;49701;48.072;7.800;2024-02-28T08:39:11;9.60;99.90
2663;DHT22;49701;48.072;7.800;2024-02-28T08:41:37;9.80;99.90
2663;DHT22;49701;48.072;7.800;2024-02-28T08:44:03;10.10;99.90
2663;DHT22;49701;48.072;7.800;2024-02-28T08:46:28;10.50;99.90
2663;DHT22;49701;48.072;7.800;2024-02-28T08:48:54;10.90;99.90
2663;DHT22;49701;48.072;7.800;2024-02-28T08:51:19;11.00;99.90
2663;DHT22;49701;48.072;7.800;2024-02-28T08:53:45;11.20;99.90
2663;DHT22;49701;48.072;7.800;2024-02-28T08:56:10;11.50;99.90
2663;DHT22;49701;48.072;7.800;2024-02-28T08:58:36;11.70;99.90
2663;DHT22;49701;48.072;7.800;2024-02-28T09:01:03;11.70;99.90
2663;DHT22;49701;48.072;7.800;2024-02-28T09:03:29;11.60;99.90
2663;DHT22;49701;48.072;7.800;2024-02-28T09:05:55;11.40;99.90
2663;DHT22;49701;48.072;7.800;2024-02-28T09:08:20;11.10;99.90
2663;DHT22;49701;48.072;7.800;2024-02-28T09:10:46;11.10;99.90
2663;DHT22;49701;48.072;7.800;2024-02-28T09:13:12;11.20;99.90
2663;DHT22;49701;48.072;7.800;2024-02-28T09:15:38;11.50;99.90
2663;DHT22;49701;48.072;7.800;2024-02-28T09:18:04;11.80;99.90
2663;DHT22;49701;48.072;7.800;2024-02-28T09:20:29;12.00;99.90
2663;DHT22;49701;48.072;7.800;2024-02-28T09:22:55;12.40;99.90
2663;DHT22;49701;48.072;7.800;2024-02-28T09:25:21;12.80;99.90
2663;DHT22;49701;48.072;7.800;2024-02-28T09:27:47;13.10;99.90
2663;DHT22;49701;48.072;7.800;2024-02-28T09:30:12;13.50;99.90
2663;DHT22;49701;48.072;7.800;2024-02-28T09:32:38;13.70;99.90
2663;DHT22;49701;48.072;7.800;2024-02-28T09:35:04;14.00;99.90
2663;DHT22;49701;48.072;7.800;2024-02-28T09:37:30;14.20;99.90
2663;DHT22;49701;48.072;7.800;2024-02-28T09:39:57;14.40;99.90
2663;DHT22;49701;48.072;7.800;2024-02-28T09:42:22;14.70;99.90
2663;DHT22;49701;48.072;7.800;2024-02-28T09:44:48;14.90;99.90
2663;DHT22;49701;48.072;7.800;2024-02-28T09:47:14;15.00;99.90
2663;DHT22;49701;48.072;7.800;2024-02-28T09:49:40;14.70;99.90
2663;DHT22;49701;48.072;7.800;2024-02-28T09:52:07;14.80;99.90
2663;DHT22;49701;48.072;7.800;2024-02-28T09:54:32;15.10;99.90
2663;DHT22;49701;48.072;7.800;2024-02-28T09:56:58;15.40;99.90
2663;DHT22;49701;48.072;7.800;2024-02-28T09:59:24;15.50;99.90
2663;DHT22;49701;48.072;7.800;2024-02-28T10:01:56;15.60;99.90
2663;DHT22;49701;48.072;7.800;2024-02-28T10:04:25;15.70;99.90
2663;DHT22;49701;48.072;7.800;2024-02-28T10:06:51;15.70;99.90
2663;DHT22;49701;48.072;7.800;2024-02-28T10:09:17;15.90;99.90
2663;DHT22;49701;48.072;7.800;2024-02-28T10:11:42;15.90;99.90
2663;DHT22;49701;48.072;7.800;2024-02-28T10:14:12;15.40;99.90
2663;DHT22;49701;48.072;7.800;2024-02-28T10:16:37;15.30;99.90
2663;DHT22;49701;48.072;7.800;2024-02-28T10:19:04;15.50;99.90
2663;DHT22;49701;48.072;7.800;2024-02-28T10:21:30;15.80;99.90
2663;DHT22;49701;48.072;7.800;2024-02-28T10:23:58;16.30;99.90
2663;DHT22;49701;48.072;7.800;2024-02-28T10:26:23;16.80;99.90
2663;DHT22;49701;48.072;7.800;2024-02-28T10:28:49;17.30;99.90
2663;DHT22;49701;48.072;7.800;2024-02-28T10:31:16;17.70;99.90
2663;DHT22;49701;48.072;7.800;2024-02-28T10:33:42;18.00;99.90
2663;DHT22;49701;48.072;7.800;2024-02-28T10:36:07;18.30;99.90
2663;DHT22;49701;48.072;7.800;2024-02-28T10:38:33;18.40;99.90
2663;DHT22;49701;48.072;7.800;2024-02-28T10:40:59;18.60;99.90
2663;DHT22;49701;48.072;7.800;2024-02-28T10:43:26;18.80;99.90
2663;DHT22;49701;48.072;7.800;2024-02-28T10:45:53;19.20;99.90
2663;DHT22;49701;48.072;7.800;2024-02-28T10:48:20;19.60;99.90
2663;DHT22;49701;48.072;7.800;2024-02-28T10:50:46;19.70;99.90
2663;DHT22;49701;48.072;7.800;2024-02-28T10:53:13;19.80;99.90
2663;DHT22;49701;48.072;7.800;2024-02-28T10:55:39;19.80;99.90
2663;DHT22;49701;48.072;7.800;2024-02-28T10:58:08;19.90;99.90
2663;DHT22;49701;48.072;7.800;2024-02-28T11:00:38;20.10;99.90
2663;DHT22;49701;48.072;7.800;2024-02-28T11:03:11;20.30;99.90
2663;DHT22;49701;48.072;7.800;2024-02-28T11:05:40;20.50;99.90
2663;DHT22;49701;48.072;7.800;2024-02-28T11:08:10;20.60;99.90
2663;DHT22;49701;48.072;7.800;2024-02-28T11:10:40;20.40;99.90
2663;DHT22;49701;48.072;7.800;2024-02-28T11:13:06;20.30;99.90
2663;DHT22;49701;48.072;7.800;2024-02-28T11:15:33;20.40;99.90
2663;DHT22;49701;48.072;7.800;2024-02-28T11:18:08;20.50;99.90
2663;DHT22;49701;48.072;7.800;2024-02-28T11:20:35;20.70;99.70
2663;DHT22;49701;48.072;7.800;2024-02-28T11:23:00;20.90;99.20
2663;DHT22;49701;48.072;7.800;2024-02-28T11:25:26;21.10;98.60
2663;DHT22;49701;48.072;7.800;2024-02-28T11:27:52;21.20;97.90
2663;DHT22;49701;48.072;7.800;2024-02-28T11:30:17;21.20;98.00
2663;DHT22;49701;48.072;7.800;2024-02-28T11:32:43;21.50;97.90
2663;DHT22;49701;48.072;7.800;2024-02-28T11:35:09;21.60;97.00
2663;DHT22;49701;48.072;7.800;2024-02-28T11:37:37;21.70;96.50
2663;DHT22;49701;48.072;7.800;2024-02-28T11:40:06;21.80;96.10
2663;DHT22;49701;48.072;7.800;2024-02-28T11:42:32;21.80;95.80
2663;DHT22;49701;48.072;7.800;2024-02-28T11:44:59;21.70;95.70
2663;DHT22;49701;48.072;7.800;2024-02-28T11:47:25;21.80;95.70
2663;DHT22;49701;48.072;7.800;2024-02-28T11:49:51;21.90;95.50
2663;DHT22;49701;48.072;7.800;2024-02-28T11:52:17;22.10;95.20
2663;DHT22;49701;48.072;7.800;2024-02-28T11:54:42;21.90;95.00
2663;DHT22;49701;48.072;7.800;2024-02-28T11:57:08;21.80;95.00
2663;DHT22;49701;48.072;7.800;2024-02-28T11:59:36;21.80;94.90
2663;DHT22;49701;48.072;7.800;2024-02-28T12:02:10;21.90;94.80
2663;DHT22;49701;48.072;7.800;2024-02-28T12:04:36;22.00;94.30
2663;DHT22;49701;48.072;7.800;2024-02-28T12:07:01;22.20;94.10
2663;DHT22;49701;48.072;7.800;2024-02-28T12:09:27;22.50;93.80
2663;DHT22;49701;48.072;7.800;2024-02-28T12:11:53;22.70;93.30
2663;DHT22;49701;48.072;7.800;2024-02-28T12:14:19;23.00;93.00
2663;DHT22;49701;48.072;7.800;2024-02-28T12:16:44;23.20;92.10
2663;DHT22;49701;48.072;7.800;2024-02-28T12:19:11;23.00;92.00
2663;DHT22;49701;48.072;7.800;2024-02-28T12:21:37;22.70;92.10
2663;DHT22;49701;48.072;7.800;2024-02-28T12:24:04;22.60;92.00
2663;DHT22;49701;48.072;7.800;2024-02-28T12:26:30;22.50;91.70
2663;DHT22;49701;48.072;7.800;2024-02-28T12:28:55;22.40;91.70
2663;DHT22;49701;48.072;7.800;2024-02-28T12:31:21;22.40;91.50
2663;DHT22;49701;48.072;7.800;2024-02-28T12:33:47;22.50;91.50
2663;DHT22;49701;48.072;7.800;2024-02-28T12:36:13;22.50;91.40
2663;DHT22;49701;48.072;7.800;2024-02-28T12:38:39;22.60;91.70
2663;DHT22;49701;48.072;7.800;2024-02-28T12:41:06;22.70;91.90
2663;DHT22;49701;48.072;7.800;2024-02-28T12:43:32;22.80;91.50
2663;DHT22;49701;48.072;7.800;2024-02-28T12:45:58;22.70;91.40
2663;DHT22;49701;48.072;7.800;2024-02-28T12:48:24;22.50;91.50
2663;DHT22;49701;48.072;7.800;2024-02-28T12:50:49;22.70;91.40
2663;DHT22;49701;48.072;7.800;2024-02-28T12:53:15;22.90;91.00
2663;DHT22;49701;48.072;7.800;2024-02-28T12:55:40;23.10;90.80
2663;DHT22;49701;48.072;7.800;2024-02-28T12:58:07;23.20;90.50
2663;DHT22;49701;48.072;7.800;2024-02-28T13:00:33;23.30;90.30
2663;DHT22;49701;48.072;7.800;2024-02-28T13:02:58;23.40;90.20
2663;DHT22;49701;48.072;7.800;2024-02-28T13:05:24;23.40;89.20
2663;DHT22;49701;48.072;7.800;2024-02-28T13:07:49;23.20;88.50
2663;DHT22;49701;48.072;7.800;2024-02-28T13:10:15;22.90;89.20
2663;DHT22;49701;48.072;7.800;2024-02-28T13:12:40;22.70;89.50
2663;DHT22;49701;48.072;7.800;2024-02-28T13:15:06;22.50;89.60
2663;DHT22;49701;48.072;7.800;2024-02-28T13:17:33;22.50;89.90
2663;DHT22;49701;48.072;7.800;2024-02-28T13:19:58;22.50;90.20
2663;DHT22;49701;48.072;7.800;2024-02-28T13:22:24;22.60;90.20
2663;DHT22;49701;48.072;7.800;2024-02-28T13:24:50;22.80;90.50
2663;DHT22;49701;48.072;7.800;2024-02-28T13:27:15;22.70;89.60
2663;DHT22;49701;48.072;7.800;2024-02-28T13:29:41;22.50;89.20
2663;DHT22;49701;48.072;7.800;2024-02-28T13:32:07;22.30;89.50
2663;DHT22;49701;48.072;7.800;2024-02-28T13:34:32;22.10;89.80
2663;DHT22;49701;48.072;7.800;2024-02-28T13:36:58;22.10;90.00
2663;DHT22;49701;48.072;7.800;2024-02-28T13:39:23;22.30;89.50
2663;DHT22;49701;48.072;7.800;2024-02-28T13:41:52;22.10;89.80
2663;DHT22;49701;48.072;7.800;2024-02-28T13:44:18;22.00;90.20
2663;DHT22;49701;48.072;7.800;2024-02-28T13:46:44;22.10;90.30
2663;DHT22;49701;48.072;7.800;2024-02-28T13:49:10;22.30;90.00
2663;DHT22;49701;48.072;7.800;2024-02-28T13:51:35;22.50;90.30
2663;DHT22;49701;48.072;7.800;2024-02-28T13:54:01;22.70;89.60
2663;DHT22;49701;48.072;7.800;2024-02-28T13:56:27;22.70;89.50
2663;DHT22;49701;48.072;7.800;2024-02-28T13:58:53;22.70;89.30
2663;DHT22;49701;48.072;7.800;2024-02-28T14:01:18;22.70;89.20
2663;DHT22;49701;48.072;7.800;2024-02-28T14:03:44;22.50;89.10
2663;DHT22;49701;48.072;7.800;2024-02-28T14:06:10;22.40;89.90
2663;DHT22;49701;48.072;7.800;2024-02-28T14:08:35;22.30;90.20
2663;DHT22;49701;48.072;7.800;2024-02-28T14:11:01;22.40;90.40
2663;DHT22;49701;48.072;7.800;2024-02-28T14:13:27;22.30;90.00
2663;DHT22;49701;48.072;7.800;2024-02-28T14:15:53;22.20;89.90
2663;DHT22;49701;48.072;7.800;2024-02-28T14:18:19;22.30;90.10
2663;DHT22;49701;48.072;7.800;2024-02-28T14:20:45;22.20;90.10
2663;DHT22;49701;48.072;7.800;2024-02-28T14:23:10;22.30;89.90
2663;DHT22;49701;48.072;7.800;2024-02-28T14:25:36;22.20;90.10
2663;DHT22;49701;48.072;7.800;2024-02-28T14:28:01;22.40;89.60
2663;DHT22;49701;48.072;7.800;2024-02-28T14:30:27;22.60;88.80
2663;DHT22;49701;48.072;7.800;2024-02-28T14:32:52;22.70;89.00
2663;DHT22;49701;48.072;7.800;2024-02-28T14:35:18;22.50;89.20
2663;DHT22;49701;48.072;7.800;2024-02-28T14:37:44;22.50;89.50
2663;DHT22;49701;48.072;7.800;2024-02-28T14:40:09;22.40;90.00
2663;DHT22;49701;48.072;7.800;2024-02-28T14:42:36;22.40;90.00
2663;DHT22;49701;48.072;7.800;2024-02-28T14:45:01;22.30;90.00
2663;DHT22;49701;48.072;7.800;2024-02-28T14:47:27;22.00;90.30
2663;DHT22;49701;48.072;7.800;2024-02-28T14:49:52;21.80;90.90
2663;DHT22;49701;48.072;7.800;2024-02-28T14:52:18;21.80;90.80
2663;DHT22;49701;48.072;7.800;2024-02-28T14:54:43;21.70;90.80
2663;DHT22;49701;48.072;7.800;2024-02-28T14:57:11;21.50;91.00
2663;DHT22;49701;48.072;7.800;2024-02-28T14:59:36;21.40;91.00
2663;DHT22;49701;48.072;7.800;2024-02-28T15:02:02;21.30;90.90
2663;DHT22;49701;48.072;7.800;2024-02-28T15:04:27;21.30;90.90
2663;DHT22;49701;48.072;7.800;2024-02-28T15:06:53;21.20;91.00
2663;DHT22;49701;48.072;7.800;2024-02-28T15:09:19;21.20;90.90
2663;DHT22;49701;48.072;7.800;2024-02-28T15:11:47;21.00;91.30
2663;DHT22;49701;48.072;7.800;2024-02-28T15:14:13;21.00;91.30
2663;DHT22;49701;48.072;7.800;2024-02-28T15:16:38;20.90;91.60
2663;DHT22;49701;48.072;7.800;2024-02-28T15:19:04;20.80;91.40
2663;DHT22;49701;48.072;7.800;2024-02-28T15:21:29;20.70;91.50
2663;DHT22;49701;48.072;7.800;2024-02-28T15:23:55;20.40;91.80
2663;DHT22;49701;48.072;7.800;2024-02-28T15:26:20;20.20;92.00
2663;DHT22;49701;48.072;7.800;2024-02-28T15:28:46;20.20;92.10
2663;DHT22;49701;48.072;7.800;2024-02-28T15:31:11;20.00;92.20
2663;DHT22;49701;48.072;7.800;2024-02-28T15:33:37;20.00;92.50
2663;DHT22;49701;48.072;7.800;2024-02-28T15:36:03;19.80;92.50
2663;DHT22;49701;48.072;7.800;2024-02-28T15:38:29;19.50;93.30
2663;DHT22;49701;48.072;7.800;2024-02-28T15:40:55;19.10;93.90
2663;DHT22;49701;48.072;7.800;2024-02-28T15:43:21;18.80;94.30
2663;DHT22;49701;48.072;7.800;2024-02-28T15:45:46;18.60;94.40